Time;durP1;ratioP1;P1;durP2;ratioP2;P2;SDS_P1;SDS_P2;PMS_P1;PMS_P2;Temp;Humidity;BMP_temperature;BMP_pressure;BME280_temperature;BME280_humidity;BME280_pressure;Samples;Min_cycle;Max_cycle;Signal;HPM_P1;HPM_P2
2021/03/17 00:00:39;;;;;;;13.97;4.13;;;2.50;99.90;;;;;;6162155;23;20271;-81
2021/03/17 00:03:05;;;;;;;20.07;4.80;;;2.50;99.90;;;;;;6155974;23;20157;-81
2021/03/17 00:05:33;;;;;;;12.50;3.50;;;2.50;99.90;;;;;;6156044;23;20161;-81
2021/03/17 00:07:59;;;;;;;10.80;3.13;;;2.50;99.90;;;;;;6155251;23;20616;-81
2021/03/17 00:10:27;;;;;;;17.80;4.73;;;2.50;99.90;;;;;;6155368;23;20173;-81
2021/03/17 00:12:54;;;;;;;17.17;4.47;;;2.50;99.90;;;;;;6161549;23;20193;-81
2021/03/17 00:15:21;;;;;;;17.63;5.33;;;2.40;99.90;;;;;;6165579;23;20212;-81
2021/03/17 00:17:47;;;;;;;18.83;5.07;;;2.50;99.90;;;;;;6167425;23;20165;-82
2021/03/17 00:20:13;;;;;;;14.93;4.07;;;2.50;99.90;;;;;;6171689;23;20200;-81
2021/03/17 00:22:39;;;;;;;5.73;1.47;;;2.50;99.90;;;;;;6171224;23;20165;-81
2021/03/17 00:25:05;;;;;;;9.77;1.40;;;2.50;99.90;;;;;;6164627;23;20149;-81
2021/03/17 00:27:31;;;;;;;6.10;1.30;;;2.50;99.90;;;;;;6158846;23;20184;-81
2021/03/17 00:29:56;;;;;;;5.70;1.00;;;2.50;99.90;;;;;;6160894;23;20621;-81
2021/03/17 00:32:22;;;;;;;10.40;1.30;;;2.50;99.90;;;;;;6170006;23;20208;-81
2021/03/17 00:34:47;;;;;;;11.77;1.70;;;2.50;99.90;;;;;;6170503;23;20157;-81
2021/03/17 00:37:13;;;;;;;8.03;2.47;;;2.50;99.90;;;;;;6172340;23;20187;-81
2021/03/17 00:39:39;;;;;;;9.30;1.63;;;2.40;99.90;;;;;;6166733;23;20200;-81
2021/03/17 00:42:04;;;;;;;5.30;1.03;;;2.30;99.90;;;;;;6163545;23;20188;-80
2021/03/17 00:44:30;;;;;;;6.17;1.17;;;2.30;99.90;;;;;;6158815;23;20157;-81
2021/03/17 00:46:55;;;;;;;6.37;1.40;;;2.30;99.90;;;;;;6160897;23;20176;-81
2021/03/17 00:49:21;;;;;;;10.57;1.90;;;2.20;99.90;;;;;;6160916;23;20644;-81
2021/03/17 00:51:46;;;;;;;5.80;0.97;;;2.20;99.90;;;;;;6161627;23;20149;-81
2021/03/17 00:54:12;;;;;;;7.87;1.40;;;2.20;99.90;;;;;;6166973;23;20204;-81
2021/03/17 00:56:38;;;;;;;6.93;1.50;;;2.20;99.90;;;;;;6168580;23;20160;-81
2021/03/17 00:59:03;;;;;;;7.80;1.70;;;2.10;99.90;;;;;;6169225;23;20227;-80
2021/03/17 01:01:29;;;;;;;4.93;1.33;;;2.10;99.90;;;;;;6169106;23;20176;-81
2021/03/17 01:03:55;;;;;;;7.37;1.63;;;2.10;99.90;;;;;;6167298;23;20149;-81
2021/03/17 01:06:20;;;;;;;11.90;1.70;;;2.00;99.90;;;;;;6164563;23;20241;-81
2021/03/17 01:08:46;;;;;;;5.43;1.33;;;1.90;99.90;;;;;;6157513;23;20633;-81
2021/03/17 01:11:12;;;;;;;6.60;1.30;;;1.80;99.90;;;;;;6164667;23;20233;-81
2021/03/17 01:13:38;;;;;;;7.30;1.40;;;1.70;99.90;;;;;;6169067;23;20510;-81
2021/03/17 01:16:04;;;;;;;7.33;1.40;;;1.70;99.90;;;;;;6175763;23;20149;-81
2021/03/17 01:18:29;;;;;;;8.23;1.43;;;1.80;99.90;;;;;;6169707;23;20270;-81
2021/03/17 01:20:55;;;;;;;14.00;1.60;;;1.90;99.90;;;;;;6169396;23;20188;-81
2021/03/17 01:23:20;;;;;;;5.87;1.30;;;1.70;99.90;;;;;;6173446;23;20215;-82
2021/03/17 01:25:47;;;;;;;6.77;1.57;;;1.80;99.90;;;;;;6165576;23;20492;-81
2021/03/17 01:28:13;;;;;;;4.83;1.20;;;1.70;99.90;;;;;;6163150;23;20189;-81
2021/03/17 01:30:45;;;;;;;7.73;1.30;;;1.70;99.90;;;;;;6161803;23;20187;-81
2021/03/17 01:33:12;;;;;;;8.40;1.40;;;1.70;99.90;;;;;;6162323;23;20168;-81
2021/03/17 01:35:39;;;;;;;9.23;1.63;;;1.80;99.90;;;;;;6159536;23;20179;-81
2021/03/17 01:38:05;;;;;;;6.13;1.30;;;1.90;99.90;;;;;;6158357;23;20161;-81
2021/03/17 01:40:32;;;;;;;5.67;1.50;;;1.80;99.90;;;;;;6158273;23;20204;-81
2021/03/17 01:42:58;;;;;;;8.67;1.70;;;1.90;99.90;;;;;;6158822;23;20156;-81
2021/03/17 01:45:24;;;;;;;8.80;1.87;;;1.90;99.90;;;;;;6161129;23;20511;-81
2021/03/17 01:47:51;;;;;;;8.67;1.67;;;1.90;99.90;;;;;;6159799;23;20204;-81
2021/03/17 01:50:24;;;;;;;6.17;1.60;;;1.80;99.90;;;;;;6162391;23;20176;-81
2021/03/17 01:52:50;;;;;;;5.00;1.60;;;1.90;99.90;;;;;;6164125;23;20149;-81
2021/03/17 01:55:17;;;;;;;8.47;1.70;;;1.90;99.90;;;;;;6162503;23;20184;-81
2021/03/17 01:57:44;;;;;;;9.53;1.90;;;2.00;99.90;;;;;;6161036;23;20165;-81
2021/03/17 02:00:13;;;;;;;5.90;1.67;;;1.90;99.90;;;;;;6165597;23;20176;-81
2021/03/17 02:02:40;;;;;;;9.07;2.20;;;1.90;99.90;;;;;;6165450;23;20598;-81
2021/03/17 02:05:11;;;;;;;7.70;1.73;;;1.90;99.90;;;;;;6165896;23;20153;-81
2021/03/17 02:07:37;;;;;;;7.07;2.20;;;1.90;99.90;;;;;;6163994;23;20172;-81
2021/03/17 02:10:11;;;;;;;6.70;1.60;;;2.00;99.90;;;;;;6162186;23;20176;-81
2021/03/17 02:12:50;;;;;;;6.93;1.73;;;2.00;99.90;;;;;;6161957;23;20169;-81
2021/03/17 02:15:34;;;;;;;6.87;2.23;;;2.00;99.90;;;;;;6164710;23;20145;-81
2021/03/17 02:18:07;;;;;;;7.63;3.10;;;2.00;99.90;;;;;;6159303;23;20223;-81
2021/03/17 02:20:35;;;;;;;10.00;2.07;;;2.00;99.90;;;;;;6159778;23;20180;-81
2021/03/17 02:23:32;;;;;;;9.23;1.83;;;1.90;99.90;;;;;;6160759;23;20459;-81
2021/03/17 02:26:10;;;;;;;6.60;1.83;;;1.90;99.90;;;;;;6159283;23;20160;-81
2021/03/17 02:28:54;;;;;;;9.93;2.23;;;1.90;99.90;;;;;;6157873;23;20223;-81
2021/03/17 02:31:26;;;;;;;7.10;1.83;;;1.90;99.90;;;;;;6155215;23;20458;-81
2021/03/17 02:34:01;;;;;;;5.40;1.87;;;1.90;99.90;;;;;;6156147;23;20658;-81
2021/03/17 02:36:34;;;;;;;7.67;2.33;;;1.90;99.90;;;;;;6160105;23;20240;-81
2021/03/17 02:39:16;;;;;;;13.87;2.47;;;1.80;99.90;;;;;;6160875;23;20210;-81
2021/03/17 02:41:48;;;;;;;11.23;1.80;;;1.80;99.90;;;;;;6159882;23;20152;-81
2021/03/17 02:44:18;;;;;;;8.13;2.23;;;1.70;99.90;;;;;;6164191;23;20141;-81
2021/03/17 02:46:45;;;;;;;7.80;2.03;;;1.70;99.90;;;;;;6172052;23;20153;-81
2021/03/17 02:49:16;;;;;;;8.50;2.30;;;1.80;99.90;;;;;;6168121;23;20204;-81
2021/03/17 02:51:53;;;;;;;7.00;1.90;;;1.70;99.90;;;;;;6170011;23;20148;-81
2021/03/17 02:54:21;;;;;;;5.37;1.67;;;1.60;99.90;;;;;;6169356;23;20164;-81
2021/03/17 02:56:58;;;;;;;8.57;2.20;;;1.70;99.90;;;;;;6165634;23;20176;-81
2021/03/17 02:59:26;;;;;;;8.30;2.10;;;1.70;99.90;;;;;;6168031;23;20203;-81
2021/03/17 03:01:53;;;;;;;6.23;1.53;;;1.70;99.90;;;;;;6169122;23;20235;-81
2021/03/17 03:04:20;;;;;;;8.13;1.60;;;1.70;99.90;;;;;;6169180;23;20165;-81
2021/03/17 03:06:48;;;;;;;6.03;1.80;;;1.70;99.90;;;;;;6162874;23;20168;-81
2021/03/17 03:09:16;;;;;;;7.93;2.23;;;1.70;99.90;;;;;;6161221;23;20180;-81
2021/03/17 03:11:42;;;;;;;6.03;1.70;;;1.70;99.90;;;;;;6158805;23;20168;-81
2021/03/17 03:14:08;;;;;;;7.03;1.70;;;1.70;99.90;;;;;;6157896;23;20152;-81
2021/03/17 03:16:35;;;;;;;9.87;1.60;;;1.70;99.90;;;;;;6158848;23;20157;-81
2021/03/17 03:19:03;;;;;;;6.80;2.10;;;1.60;99.90;;;;;;6156290;23;20164;-81
2021/03/17 03:21:29;;;;;;;5.30;1.53;;;1.60;99.90;;;;;;6154494;23;20176;-80
2021/03/17 03:23:57;;;;;;;5.90;1.83;;;1.60;99.90;;;;;;6154639;23;20157;-81
2021/03/17 03:26:23;;;;;;;5.33;1.90;;;1.50;99.90;;;;;;6154965;23;20161;-80
2021/03/17 03:28:51;;;;;;;9.77;1.70;;;1.60;99.90;;;;;;6155410;23;20184;-81
2021/03/17 03:31:17;;;;;;;6.63;1.73;;;1.50;99.90;;;;;;6155317;23;20153;-81
2021/03/17 03:33:44;;;;;;;5.97;1.97;;;1.60;99.90;;;;;;6154215;23;20161;-81
2021/03/17 03:36:10;;;;;;;6.73;1.40;;;1.50;99.90;;;;;;6154634;23;20200;-80
2021/03/17 03:38:36;;;;;;;5.20;1.70;;;1.40;99.90;;;;;;6154682;23;20157;-80
2021/03/17 03:41:02;;;;;;;6.73;1.67;;;1.50;99.90;;;;;;6155304;23;20261;-81
2021/03/17 03:43:28;;;;;;;7.50;2.00;;;1.40;99.90;;;;;;6156678;23;20538;-81
2021/03/17 03:45:53;;;;;;;6.67;1.83;;;1.50;99.90;;;;;;6159176;23;20204;-81
2021/03/17 03:48:19;;;;;;;7.03;2.00;;;1.40;99.90;;;;;;6162242;23;20644;-81
2021/03/17 03:50:48;;;;;;;8.00;1.70;;;1.20;99.90;;;;;;6169694;23;20177;-80
2021/03/17 03:53:19;;;;;;;5.03;1.80;;;1.20;99.90;;;;;;6168988;23;20236;-82
2021/03/17 03:55:51;;;;;;;10.57;2.40;;;1.20;99.90;;;;;;6167440;23;20141;-82
2021/03/17 03:58:25;;;;;;;6.03;1.83;;;1.10;99.90;;;;;;6165681;23;20164;-81
2021/03/17 04:00:53;;;;;;;7.07;2.20;;;1.10;99.90;;;;;;6163397;23;20176;-81
2021/03/17 04:03:22;;;;;;;6.77;2.37;;;1.20;99.90;;;;;;6158486;23;20156;-81
2021/03/17 04:05:52;;;;;;;14.40;3.67;;;1.30;99.90;;;;;;6158738;23;20237;-81
2021/03/17 04:08:19;;;;;;;7.13;2.00;;;1.20;99.90;;;;;;6159975;23;20621;-81
2021/03/17 04:10:54;;;;;;;7.80;2.43;;;1.10;99.90;;;;;;6158500;23;20192;-81
2021/03/17 04:13:21;;;;;;;7.97;2.20;;;1.00;99.90;;;;;;6159680;23;20137;-81
2021/03/17 04:15:47;;;;;;;10.07;2.27;;;0.90;99.90;;;;;;6158942;23;20160;-81
2021/03/17 04:18:15;;;;;;;6.13;1.50;;;1.00;99.90;;;;;;6163882;23;20161;-81
2021/03/17 04:20:49;;;;;;;8.00;2.00;;;1.00;99.90;;;;;;6163393;23;20215;-81
2021/03/17 04:23:16;;;;;;;8.10;1.77;;;1.10;99.90;;;;;;6159463;23;20164;-81
2021/03/17 04:25:47;;;;;;;9.13;1.80;;;1.00;99.90;;;;;;6158203;23;20161;-81
2021/03/17 04:28:19;;;;;;;8.93;2.30;;;1.00;99.90;;;;;;6157094;23;20177;-81
2021/03/17 04:30:46;;;;;;;9.33;2.20;;;1.10;99.90;;;;;;6155589;23;20173;-82
2021/03/17 04:33:14;;;;;;;6.10;1.80;;;1.10;99.90;;;;;;6156987;23;20153;-81
2021/03/17 04:35:42;;;;;;;5.70;1.70;;;1.10;99.90;;;;;;6157310;23;20153;-82
2021/03/17 04:38:09;;;;;;;7.50;2.83;;;1.20;99.90;;;;;;6157258;23;20157;-82
2021/03/17 04:40:36;;;;;;;5.87;1.73;;;1.20;99.90;;;;;;6158059;23;20177;-81
2021/03/17 04:43:03;;;;;;;6.80;2.13;;;1.20;99.90;;;;;;6157417;23;20170;-81
2021/03/17 04:45:28;;;;;;;8.13;2.30;;;1.20;99.90;;;;;;6156616;23;20208;-83
2021/03/17 04:47:55;;;;;;;6.90;2.07;;;1.20;99.90;;;;;;6165753;23;20180;-81
2021/03/17 04:53:16;;;;;;;9.63;2.77;;;1.20;99.90;;;;;;6164055;23;20215;-81
2021/03/17 05:02:33;;;;;;;8.43;2.30;;;1.40;99.90;;;;;;6070143;23;20226;-82
2021/03/17 05:06:25;;;;;;;8.50;2.00;;;1.30;99.90;;;;;;6067872;23;20241;-81
2021/03/17 08:09:30;;;;;;;12.97;5.33;;;2.80;99.90;;;;;;6166934;23;20214;-83
2021/03/17 08:12:00;;;;;;;13.13;5.70;;;2.80;99.90;;;;;;6173154;23;20157;-83
2021/03/17 08:52:27;;;;;;;13.10;6.17;;;3.10;99.90;;;;;;6193849;23;20228;-81
2021/03/17 08:55:38;;;;;;;10.00;4.97;;;3.10;99.90;;;;;;6179448;23;20149;-80
2021/03/17 09:13:54;;;;;;;15.10;6.27;;;3.80;99.90;;;;;;6184991;23;20268;-79
2021/03/17 09:16:19;;;;;;;11.27;4.87;;;4.00;99.90;;;;;;6199611;23;20164;-81
2021/03/17 09:19:02;;;;;;;12.57;5.50;;;4.30;99.90;;;;;;6171402;23;20211;-82
2021/03/17 09:24:33;;;;;;;11.67;5.43;;;4.50;99.90;;;;;;6138695;23;20144;-84
2021/03/17 09:30:24;;;;;;;16.10;6.10;;;4.60;99.90;;;;;;6134752;23;20233;-83
2021/03/17 09:32:58;;;;;;;13.40;6.20;;;4.50;99.90;;;;;;6129673;23;20158;-85
2021/03/17 09:35:24;;;;;;;12.30;6.63;;;4.60;99.90;;;;;;6154165;23;20178;-85
2021/03/17 09:38:04;;;;;;;13.03;6.27;;;4.70;99.90;;;;;;6129208;23;20177;-85
2021/03/17 09:40:35;;;;;;;12.07;5.97;;;4.90;99.90;;;;;;6151918;23;20181;-85
2021/03/17 09:43:01;;;;;;;10.87;5.40;;;5.20;99.90;;;;;;6126278;23;20164;-83
2021/03/17 09:45:27;;;;;;;12.03;5.43;;;5.20;99.90;;;;;;6127121;23;20645;-85
2021/03/17 09:47:57;;;;;;;12.60;6.30;;;5.40;99.90;;;;;;6150015;23;20633;-84
2021/03/17 09:50:24;;;;;;;11.80;5.97;;;5.30;99.90;;;;;;6126247;23;20688;-85
2021/03/17 09:52:50;;;;;;;10.50;5.47;;;5.50;99.90;;;;;;6129545;23;20193;-85
2021/03/17 09:55:30;;;;;;;11.30;5.43;;;5.70;99.90;;;;;;6130480;23;20153;-85
2021/03/17 09:58:04;;;;;;;10.47;5.40;;;5.80;99.90;;;;;;6129725;23;20179;-85
2021/03/17 10:00:31;;;;;;;13.13;6.23;;;6.00;99.90;;;;;;6152480;23;20255;-85
2021/03/17 10:02:58;;;;;;;12.87;6.07;;;6.10;99.90;;;;;;6153032;23;20160;-84
2021/03/17 10:05:23;;;;;;;9.57;5.27;;;6.20;99.90;;;;;;6154914;23;20548;-85
2021/03/17 10:07:50;;;;;;;11.07;5.20;;;6.30;99.90;;;;;;6129416;23;20191;-85
2021/03/17 10:10:15;;;;;;;10.20;5.33;;;6.30;99.90;;;;;;6152764;23;20213;-85
2021/03/17 10:12:43;;;;;;;10.23;5.30;;;6.00;99.90;;;;;;6129606;23;20208;-85
2021/03/17 10:15:11;;;;;;;13.33;7.33;;;5.70;99.90;;;;;;6127931;23;20154;-85
2021/03/17 10:17:38;;;;;;;20.67;10.77;;;5.90;99.90;;;;;;6154256;23;20156;-85
2021/03/17 10:20:09;;;;;;;43.33;23.40;;;5.80;99.90;;;;;;6129992;23;20257;-84
2021/03/17 10:22:35;;;;;;;33.10;19.70;;;6.10;99.90;;;;;;6154541;23;20622;-85
2021/03/17 10:25:15;;;;;;;17.20;9.63;;;6.20;99.90;;;;;;6129418;23;20224;-85
2021/03/17 10:27:46;;;;;;;11.20;6.43;;;6.00;99.90;;;;;;6127388;23;20211;-85
2021/03/17 10:30:15;;;;;;;10.70;6.00;;;6.10;99.90;;;;;;6150931;23;20169;-84
2021/03/17 10:32:43;;;;;;;12.20;6.30;;;6.00;99.90;;;;;;6128401;23;20623;-84
2021/03/17 10:35:12;;;;;;;12.37;6.43;;;6.20;99.90;;;;;;6127666;23;20149;-85
2021/03/17 10:37:38;;;;;;;13.83;7.40;;;6.30;99.90;;;;;;6150347;23;20157;-85
2021/03/17 10:40:13;;;;;;;12.43;6.80;;;6.20;99.90;;;;;;6127743;23;20234;-84
2021/03/17 10:42:55;;;;;;;11.73;6.43;;;6.10;99.90;;;;;;6148022;23;20156;-83
2021/03/17 10:45:28;;;;;;;12.47;6.90;;;6.10;99.90;;;;;;6151477;23;20179;-84
2021/03/17 10:47:53;;;;;;;13.30;7.37;;;6.00;99.90;;;;;;6151781;23;20634;-84
2021/03/17 10:50:31;;;;;;;13.43;6.53;;;6.00;99.90;;;;;;6126798;23;20212;-83
2021/03/17 10:52:57;;;;;;;12.17;6.43;;;5.60;99.90;;;;;;6151255;23;20156;-84
2021/03/17 10:55:30;;;;;;;11.20;5.60;;;5.70;99.90;;;;;;6126187;23;20156;-84
2021/03/17 10:58:19;;;;;;;12.17;6.53;;;5.90;99.90;;;;;;6151076;23;20154;-84
2021/03/17 11:00:47;;;;;;;12.43;6.70;;;5.60;99.90;;;;;;6150139;23;20184;-85
2021/03/17 11:03:38;;;;;;;14.17;7.50;;;5.90;99.90;;;;;;6150890;23;20213;-84
2021/03/17 11:06:14;;;;;;;12.77;6.60;;;5.70;99.90;;;;;;6150813;23;20540;-84
2021/03/17 11:08:40;;;;;;;13.93;6.43;;;5.70;99.90;;;;;;6149372;23;20179;-83
2021/03/17 11:11:11;;;;;;;14.40;7.50;;;5.70;99.90;;;;;;6151214;23;20177;-84
2021/03/17 11:13:45;;;;;;;17.37;9.07;;;5.90;99.90;;;;;;6154105;23;20162;-85
2021/03/17 11:16:40;;;;;;;18.07;9.77;;;6.20;99.90;;;;;;6154040;23;20707;-83
2021/03/17 11:19:11;;;;;;;14.37;8.27;;;6.20;99.90;;;;;;6132327;23;20156;-85
2021/03/17 11:21:38;;;;;;;14.33;8.20;;;5.80;99.90;;;;;;6151517;23;20154;-84
2021/03/17 11:24:07;;;;;;;11.13;6.33;;;5.80;99.90;;;;;;6128987;23;20157;-84
2021/03/17 11:26:38;;;;;;;12.70;6.60;;;5.50;99.90;;;;;;6149623;23;20160;-83
2021/03/17 11:29:26;;;;;;;9.73;5.00;;;5.50;99.90;;;;;;6127912;23;20520;-84
2021/03/17 11:31:55;;;;;;;10.87;5.63;;;5.80;99.90;;;;;;6151861;23;20543;-83
2021/03/17 11:34:21;;;;;;;11.20;5.30;;;6.00;99.90;;;;;;6152659;23;20590;-83
2021/03/17 11:36:48;;;;;;;12.03;6.10;;;5.60;99.90;;;;;;6130304;23;20182;-84
2021/03/17 11:39:16;;;;;;;11.53;5.87;;;5.60;99.90;;;;;;6131229;23;20172;-82
2021/03/17 11:41:45;;;;;;;10.97;5.87;;;5.70;99.90;;;;;;6153932;23;20160;-85
2021/03/17 11:44:19;;;;;;;10.37;5.33;;;5.70;99.90;;;;;;6153304;23;20173;-85
2021/03/17 11:46:45;;;;;;;11.60;5.50;;;5.60;99.90;;;;;;6151315;23;20191;-85
2021/03/17 11:49:11;;;;;;;12.07;5.43;;;5.80;99.90;;;;;;6126101;23;20185;-83
2021/03/17 11:51:37;;;;;;;10.97;5.70;;;6.00;99.90;;;;;;6151432;23;20158;-85
2021/03/17 11:54:03;;;;;;;11.23;5.93;;;5.80;99.90;;;;;;6151059;23;20189;-83
2021/03/17 11:56:29;;;;;;;12.47;6.23;;;5.90;99.90;;;;;;6127634;23;20146;-83
2021/03/17 11:58:54;;;;;;;11.13;6.03;;;5.90;99.90;;;;;;6150237;23;20196;-84
2021/03/17 12:01:20;;;;;;;10.67;6.03;;;6.10;99.90;;;;;;6127475;23;20161;-84
2021/03/17 12:03:46;;;;;;;11.00;5.97;;;5.50;99.90;;;;;;6128138;23;20213;-83
2021/03/17 12:06:13;;;;;;;10.23;5.73;;;5.20;99.90;;;;;;6126909;23;20153;-83
2021/03/17 12:08:38;;;;;;;10.37;5.50;;;5.20;99.90;;;;;;6128585;23;20173;-84
2021/03/17 12:11:05;;;;;;;9.60;5.40;;;5.20;99.90;;;;;;6125874;23;20173;-84
2021/03/17 12:13:30;;;;;;;10.70;6.00;;;5.50;99.90;;;;;;6129654;23;20165;-83
2021/03/17 12:15:56;;;;;;;9.63;5.33;;;5.90;99.90;;;;;;6125515;23;20184;-84
2021/03/17 12:18:22;;;;;;;11.47;5.43;;;6.10;99.90;;;;;;6122138;23;20593;-84
2021/03/17 12:20:48;;;;;;;10.23;5.20;;;6.00;99.90;;;;;;6148081;23;20632;-84
2021/03/17 12:23:15;;;;;;;9.83;5.50;;;6.00;99.90;;;;;;6120052;23;20586;-83
2021/03/17 12:25:41;;;;;;;10.30;5.70;;;5.90;99.90;;;;;;6143077;23;20154;-84
2021/03/17 12:28:06;;;;;;;10.40;5.53;;;6.10;99.90;;;;;;6120430;23;20212;-85
2021/03/17 12:30:43;;;;;;;10.10;5.43;;;6.20;99.90;;;;;;6117143;23;20189;-84
2021/03/17 12:33:09;;;;;;;11.30;5.27;;;6.20;99.90;;;;;;6122382;23;20153;-84
2021/03/17 12:35:34;;;;;;;10.47;4.93;;;6.20;99.90;;;;;;6121886;23;20251;-84
2021/03/17 12:38:01;;;;;;;10.53;4.70;;;6.30;99.90;;;;;;6123459;23;20153;-84
2021/03/17 12:40:28;;;;;;;8.80;4.20;;;6.10;99.90;;;;;;6148766;23;20189;-84
2021/03/17 12:42:55;;;;;;;9.90;4.73;;;6.40;99.90;;;;;;6149527;23;20159;-85
2021/03/17 12:45:23;;;;;;;9.87;4.80;;;6.50;99.90;;;;;;6124742;23;20585;-83
2021/03/17 12:47:50;;;;;;;8.47;4.47;;;6.60;99.90;;;;;;6148438;23;20181;-84
2021/03/17 12:50:18;;;;;;;8.50;4.73;;;6.80;99.90;;;;;;6148966;23;20178;-84
2021/03/17 12:52:43;;;;;;;9.70;5.10;;;6.80;99.90;;;;;;6125764;23;20784;-84
2021/03/17 12:55:10;;;;;;;9.03;4.60;;;6.80;99.90;;;;;;6124563;23;20193;-84
2021/03/17 12:57:36;;;;;;;9.80;5.10;;;7.00;99.90;;;;;;6123886;23;20190;-83
2021/03/17 13:00:08;;;;;;;10.37;5.07;;;7.10;99.90;;;;;;6147434;23;20185;-82
2021/03/17 13:02:33;;;;;;;10.33;4.73;;;7.20;99.90;;;;;;6128074;23;20154;-83
2021/03/17 13:04:59;;;;;;;10.00;4.73;;;7.20;99.90;;;;;;6124219;23;20164;-82
2021/03/17 13:07:24;;;;;;;10.30;5.17;;;7.40;99.90;;;;;;6151229;23;20259;-83
2021/03/17 13:09:50;;;;;;;9.73;4.33;;;7.30;99.90;;;;;;6150168;23;20244;-82
2021/03/17 13:12:16;;;;;;;10.00;5.43;;;7.10;99.90;;;;;;6123588;23;20570;-82
2021/03/17 13:14:44;;;;;;;10.17;4.73;;;7.30;99.90;;;;;;6125390;23;20495;-82
2021/03/17 13:17:10;;;;;;;8.47;4.53;;;7.40;99.90;;;;;;6126670;23;20138;-83
2021/03/17 13:19:36;;;;;;;9.20;4.30;;;7.30;99.90;;;;;;6122296;23;20174;-84
2021/03/17 13:22:03;;;;;;;10.60;4.70;;;7.40;99.90;;;;;;6123259;23;20158;-82
2021/03/17 13:24:28;;;;;;;8.00;3.80;;;7.50;99.90;;;;;;6126497;23;20228;-82
2021/03/17 13:26:54;;;;;;;8.93;4.20;;;7.70;99.90;;;;;;6123058;23;20188;-82
2021/03/17 13:29:20;;;;;;;9.10;4.37;;;7.80;99.90;;;;;;6123413;23;20229;-82
2021/03/17 13:31:45;;;;;;;8.77;4.53;;;7.70;99.90;;;;;;6129446;23;20196;-84
2021/03/17 13:34:11;;;;;;;8.50;4.00;;;7.40;99.90;;;;;;6124551;23;20216;-83
2021/03/17 13:36:36;;;;;;;8.10;4.10;;;7.50;99.90;;;;;;6123942;23;20154;-84
2021/03/17 13:39:05;;;;;;;7.73;4.00;;;7.70;99.90;;;;;;6124692;23;20165;-83
2021/03/17 13:41:31;;;;;;;8.23;4.17;;;8.00;99.90;;;;;;6127339;23;20226;-82
2021/03/17 13:43:57;;;;;;;8.40;3.83;;;8.00;99.90;;;;;;6126106;23;20157;-82
2021/03/17 13:46:24;;;;;;;8.20;3.47;;;8.20;99.90;;;;;;6128857;23;20154;-83
2021/03/17 13:48:49;;;;;;;7.93;3.87;;;8.40;99.90;;;;;;6128704;23;20224;-82
2021/03/17 13:51:15;;;;;;;7.13;3.50;;;8.50;99.90;;;;;;6125226;23;20641;-81
2021/03/17 13:53:41;;;;;;;7.10;3.37;;;8.60;99.90;;;;;;6127542;23;20221;-82
2021/03/17 13:56:07;;;;;;;6.00;2.60;;;8.60;99.90;;;;;;6126546;23;20146;-83
2021/03/17 13:58:32;;;;;;;7.57;3.37;;;8.70;99.90;;;;;;6152386;23;20158;-83
2021/03/17 14:00:58;;;;;;;6.67;2.87;;;8.80;99.90;;;;;;6127103;23;20181;-83
2021/03/17 14:03:24;;;;;;;6.10;2.00;;;8.70;99.90;;;;;;6129030;23;20154;-83
2021/03/17 14:05:49;;;;;;;4.73;1.90;;;8.90;99.90;;;;;;6127786;23;20150;-83
2021/03/17 14:08:15;;;;;;;4.30;1.47;;;9.00;99.90;;;;;;6127703;23;20240;-83
2021/03/17 14:10:42;;;;;;;3.97;1.40;;;9.10;99.90;;;;;;6126121;23;20792;-83
2021/03/17 14:13:08;;;;;;;5.37;2.30;;;9.00;99.90;;;;;;6133016;23;20215;-84
2021/03/17 14:15:34;;;;;;;5.07;1.83;;;9.00;99.90;;;;;;6135503;23;20610;-85
2021/03/17 14:18:00;;;;;;;4.83;1.93;;;8.90;99.90;;;;;;6153052;23;20507;-85
2021/03/17 14:20:28;;;;;;;7.53;1.97;;;9.10;99.90;;;;;;6133530;23;20201;-86
2021/03/17 14:22:59;;;;;;;4.80;1.40;;;9.50;99.90;;;;;;6158512;23;20153;-84
2021/03/17 14:25:25;;;;;;;2.67;1.00;;;9.40;99.90;;;;;;6130792;23;20490;-87
2021/03/17 14:27:51;;;;;;;4.27;1.10;;;9.30;99.90;;;;;;6153206;23;20188;-86
2021/03/17 14:30:17;;;;;;;1.70;0.70;;;9.30;99.90;;;;;;6153110;23;20169;-86
2021/03/17 14:32:43;;;;;;;2.53;1.00;;;9.10;99.90;;;;;;6152436;23;20158;-85
2021/03/17 14:35:11;;;;;;;2.33;1.00;;;9.20;99.90;;;;;;6126844;23;20205;-84
2021/03/17 14:37:40;;;;;;;3.07;1.10;;;9.30;99.90;;;;;;6145832;23;20215;-84
2021/03/17 14:40:09;;;;;;;3.17;1.20;;;9.30;99.90;;;;;;6123305;23;20184;-84
2021/03/17 14:42:35;;;;;;;2.40;0.93;;;9.50;99.90;;;;;;6124133;23;20204;-83
2021/03/17 14:45:01;;;;;;;2.33;1.00;;;9.70;99.90;;;;;;6148201;23;20213;-84
2021/03/17 14:47:27;;;;;;;4.27;1.47;;;9.70;99.90;;;;;;6122777;23;20185;-83
2021/03/17 14:49:52;;;;;;;2.90;1.00;;;9.80;99.90;;;;;;6123411;23;20174;-83
2021/03/17 14:52:18;;;;;;;4.03;1.10;;;9.80;99.50;;;;;;6122517;23;20153;-83
2021/03/17 14:54:43;;;;;;;3.87;1.13;;;9.80;99.20;;;;;;6125622;23;20169;-83
2021/03/17 14:57:09;;;;;;;4.37;1.30;;;10.00;98.70;;;;;;6122995;23;20150;-84
2021/03/17 14:59:35;;;;;;;3.60;1.13;;;9.80;99.90;;;;;;6124609;23;20178;-84
2021/03/17 15:02:01;;;;;;;5.17;1.80;;;10.10;99.90;;;;;;6121430;23;20153;-82
2021/03/17 15:04:27;;;;;;;4.83;2.00;;;10.10;99.90;;;;;;6123459;23;20538;-83
2021/03/17 15:06:52;;;;;;;6.40;2.30;;;10.20;99.90;;;;;;6124425;23;20205;-83
2021/03/17 15:09:19;;;;;;;4.63;2.10;;;10.20;99.90;;;;;;6124358;23;20554;-83
2021/03/17 15:11:44;;;;;;;6.00;2.10;;;10.30;99.90;;;;;;6121679;23;20197;-84
2021/03/17 15:14:10;;;;;;;6.03;2.33;;;10.10;99.90;;;;;;6122372;23;20501;-84
2021/03/17 15:16:36;;;;;;;5.93;2.40;;;10.20;99.90;;;;;;6122746;23;20626;-83
2021/03/17 15:19:04;;;;;;;6.27;2.67;;;10.40;99.90;;;;;;6123313;23;20601;-82
2021/03/17 15:21:30;;;;;;;6.50;2.57;;;10.40;99.90;;;;;;6147735;23;20185;-83
2021/03/17 15:23:56;;;;;;;5.20;1.90;;;10.50;99.90;;;;;;6120546;23;20172;-83
2021/03/17 15:26:23;;;;;;;6.63;2.50;;;10.20;99.90;;;;;;6148713;23;20191;-83
2021/03/17 15:28:49;;;;;;;4.70;2.00;;;10.30;99.90;;;;;;6123529;23;20182;-83
2021/03/17 15:31:15;;;;;;;6.03;1.90;;;10.00;98.50;;;;;;6122983;23;20271;-84
2021/03/17 15:33:40;;;;;;;3.83;1.63;;;10.10;99.90;;;;;;6122735;23;20154;-83
2021/03/17 15:36:06;;;;;;;4.73;1.70;;;9.80;99.00;;;;;;6122748;23;20201;-84
2021/03/17 15:38:32;;;;;;;5.77;1.70;;;9.80;99.90;;;;;;6122670;23;20623;-83
2021/03/17 15:40:57;;;;;;;3.50;1.40;;;9.90;98.70;;;;;;6123985;23;20174;-83
2021/03/17 15:43:23;;;;;;;4.10;2.00;;;9.80;99.90;;;;;;6123617;23;20158;-83
2021/03/17 15:45:49;;;;;;;3.80;1.40;;;9.90;99.90;;;;;;6123703;23;20161;-84
2021/03/17 15:48:15;;;;;;;4.60;1.83;;;10.00;97.90;;;;;;6147349;23;20190;-85
2021/03/17 15:50:41;;;;;;;4.50;1.60;;;9.90;98.80;;;;;;6123532;23;20173;-84
2021/03/17 15:53:09;;;;;;;3.20;1.40;;;10.00;99.90;;;;;;6147441;23;20590;-83
2021/03/17 15:55:35;;;;;;;4.27;1.57;;;10.00;99.90;;;;;;6125922;23;20338;-84
2021/03/17 15:58:02;;;;;;;2.70;1.30;;;10.00;99.90;;;;;;6148400;23;20169;-83
2021/03/17 16:00:28;;;;;;;4.03;1.37;;;10.00;99.90;;;;;;6125269;23;20484;-83
2021/03/17 16:02:55;;;;;;;4.57;1.80;;;10.00;99.90;;;;;;6147886;23;20207;-84
2021/03/17 16:05:20;;;;;;;3.00;1.30;;;10.00;97.10;;;;;;6146591;23;20497;-85
2021/03/17 16:07:46;;;;;;;4.63;1.50;;;9.60;99.90;;;;;;6120574;23;20260;-84
2021/03/17 16:10:14;;;;;;;3.50;1.40;;;9.60;99.90;;;;;;6122345;23;20194;-84
2021/03/17 16:12:41;;;;;;;3.63;1.60;;;9.70;99.90;;;;;;6146382;23;20228;-84
2021/03/17 16:15:08;;;;;;;3.40;1.40;;;9.80;99.90;;;;;;6148363;23;20177;-83
2021/03/17 16:17:36;;;;;;;3.33;1.50;;;10.00;99.90;;;;;;6148526;23;20166;-83
2021/03/17 16:20:03;;;;;;;4.10;1.93;;;9.70;98.70;;;;;;6123106;23;20257;-83
2021/03/17 16:22:28;;;;;;;4.80;1.40;;;9.60;99.90;;;;;;6144734;23;20167;-84
2021/03/17 16:24:54;;;;;;;3.43;1.50;;;9.80;99.90;;;;;;6122116;23;20157;-84
2021/03/17 16:27:22;;;;;;;4.03;1.50;;;9.60;99.30;;;;;;6147195;23;20192;-84
2021/03/17 16:29:49;;;;;;;3.60;1.53;;;9.50;99.90;;;;;;6124053;23;20225;-83
2021/03/17 16:32:17;;;;;;;3.90;1.47;;;9.50;99.90;;;;;;6122345;23;20520;-84
2021/03/17 16:34:42;;;;;;;4.93;1.77;;;9.40;99.90;;;;;;6123570;23;20144;-84
2021/03/17 16:37:09;;;;;;;4.17;1.33;;;9.50;99.90;;;;;;6122671;23;20237;-83
2021/03/17 16:39:36;;;;;;;4.40;1.40;;;9.40;99.90;;;;;;6122352;23;20182;-83
2021/03/17 16:42:02;;;;;;;3.70;1.30;;;9.30;99.90;;;;;;6147569;23;20158;-84
2021/03/17 16:44:29;;;;;;;3.13;1.30;;;9.30;99.90;;;;;;6147196;23;20154;-83
2021/03/17 16:46:55;;;;;;;4.03;1.40;;;9.30;99.90;;;;;;6122439;23;20165;-83
2021/03/17 16:49:22;;;;;;;4.27;1.40;;;9.30;99.90;;;;;;6122376;23;20220;-84
2021/03/17 16:51:50;;;;;;;4.30;1.50;;;9.40;99.90;;;;;;6123114;23;20165;-84
2021/03/17 16:54:16;;;;;;;2.93;1.03;;;9.30;99.90;;;;;;6121596;23;20804;-82
2021/03/17 16:56:44;;;;;;;4.17;1.30;;;9.20;99.90;;;;;;6123697;23;20175;-83
2021/03/17 16:59:11;;;;;;;3.67;1.37;;;9.20;99.90;;;;;;6124602;23;20675;-84
2021/03/17 17:01:37;;;;;;;3.70;1.20;;;8.90;99.90;;;;;;6123961;23;20598;-84
2021/03/17 17:04:02;;;;;;;3.93;1.40;;;8.80;99.90;;;;;;6124047;23;20148;-84
2021/03/17 17:06:28;;;;;;;4.67;1.43;;;8.60;99.90;;;;;;6124144;23;20221;-83
2021/03/17 17:08:54;;;;;;;5.73;1.47;;;8.40;99.90;;;;;;6121856;23;20216;-83